Time;durP1;ratioP1;P1;durP2;ratioP2;P2;SDS_P1;SDS_P2;PMS_P1;PMS_P2;Temp;Humidity;BMP_temperature;BMP_pressure;BME280_temperature;BME280_humidity;BME280_pressure;Samples;Min_cycle;Max_cycle;Signal;HPM_P1;HPM_P2
2023/08/05 00:00:08;;;;;;;7.28;5.63;;;;;;;26.17;59.21;99477.13;5105235;28;20038;-27
2023/08/05 00:02:33;;;;;;;6.70;4.90;;;;;;;26.10;60.16;99493.28;5105181;28;20495;-24
2023/08/05 00:04:59;;;;;;;6.40;5.00;;;;;;;26.04;60.28;99488.00;5105013;28;20019;-23
2023/08/05 00:07:24;;;;;;;6.85;5.18;;;;;;;26.01;60.44;99468.75;5105204;27;20027;-24
2023/08/05 00:09:50;;;;;;;7.88;5.00;;;;;;;26.09;60.84;99480.75;5105086;28;20030;-23
2023/08/05 00:12:16;;;;;;;7.63;5.47;;;;;;;25.81;62.38;99487.56;5105114;28;20115;-29
2023/08/05 00:14:42;;;;;;;7.85;5.28;;;;;;;25.75;63.61;99485.38;5104982;28;20114;-23
2023/08/05 00:17:07;;;;;;;8.13;5.55;;;;;;;25.59;64.80;99482.44;5104806;28;20627;-26
2023/08/05 00:19:32;;;;;;;7.50;5.75;;;;;;;25.63;64.88;99475.19;5105122;28;20644;-26
2023/08/05 00:21:58;;;;;;;8.95;5.55;;;;;;;25.81;64.72;99481.31;5104506;28;20056;-24
2023/08/05 00:24:23;;;;;;;7.72;6.07;;;;;;;25.73;66.32;99469.31;5104917;28;20453;-23
2023/08/05 00:26:49;;;;;;;7.65;6.00;;;;;;;25.62;66.83;99468.13;5104689;28;20023;-23
2023/08/05 00:29:14;;;;;;;7.40;5.95;;;;;;;25.41;68.58;99473.59;5104860;28;20019;-23
2023/08/05 00:31:39;;;;;;;7.70;6.03;;;;;;;25.57;68.98;99471.84;5104975;28;20024;-23
2023/08/05 00:34:05;;;;;;;8.02;6.53;;;;;;;25.80;67.80;99471.50;5104619;28;20790;-23
2023/08/05 00:36:30;;;;;;;10.05;6.60;;;;;;;25.55;69.30;99468.66;5104801;28;20048;-23
2023/08/05 00:38:56;;;;;;;8.93;6.47;;;;;;;25.57;69.19;99463.66;5104384;28;20033;-23
2023/08/05 00:41:21;;;;;;;9.07;6.88;;;;;;;25.47;69.44;99472.25;5104266;28;20037;-23
2023/08/05 00:43:47;;;;;;;11.73;6.47;;;;;;;25.50;69.53;99463.41;5104648;28;20539;-23
2023/08/05 00:46:13;;;;;;;9.75;6.55;;;;;;;25.33;70.59;99463.53;5104585;28;20191;-23
2023/08/05 00:48:39;;;;;;;10.65;6.90;;;;;;;25.37;70.75;99461.75;5104329;28;20526;-24
2023/08/05 00:51:06;;;;;;;9.05;6.43;;;;;;;25.36;71.11;99457.44;5103983;28;20039;-24
2023/08/05 00:53:35;;;;;;;8.02;6.72;;;;;;;25.36;71.49;99454.69;5104211;28;20433;-24
2023/08/05 00:56:01;;;;;;;9.73;6.50;;;;;;;25.52;70.48;99447.50;5104311;28;20031;-24
2023/08/05 00:58:28;;;;;;;8.95;6.40;;;;;;;25.43;71.85;99439.38;5104408;28;20039;-24
2023/08/05 01:00:54;;;;;;;9.25;6.90;;;;;;;25.44;72.03;99440.19;5104084;28;20176;-23
2023/08/05 01:03:20;;;;;;;9.88;7.18;;;;;;;25.30;72.71;99448.63;5104234;28;20040;-24
2023/08/05 01:05:49;;;;;;;8.18;6.82;;;;;;;25.03;74.94;99439.00;5104453;28;20475;-23
2023/08/05 01:08:16;;;;;;;9.55;7.38;;;;;;;25.10;74.87;99443.94;5104408;28;20058;-24
2023/08/05 01:10:42;;;;;;;9.35;7.15;;;;;;;25.09;74.77;99451.31;5104580;28;20126;-23
2023/08/05 01:13:08;;;;;;;9.25;7.10;;;;;;;25.22;75.27;99444.03;5104278;28;20040;-24
2023/08/05 01:15:33;;;;;;;9.43;7.22;;;;;;;25.14;75.42;99442.94;5104309;28;20458;-24
2023/08/05 01:18:01;;;;;;;9.25;7.38;;;;;;;25.17;74.99;99449.66;5104005;28;20026;-24
2023/08/05 01:20:34;;;;;;;10.85;7.53;;;;;;;25.24;75.19;99448.03;5104275;28;20496;-24
2023/08/05 01:23:29;;;;;;;8.93;7.28;;;;;;;25.57;73.84;99436.38;5104076;28;20023;-23
2023/08/05 01:25:55;;;;;;;10.60;7.80;;;;;;;25.02;77.20;99445.56;5101959;28;20063;-23
2023/08/05 01:28:21;;;;;;;11.40;8.52;;;;;;;24.97;78.27;99443.06;5104222;28;20695;-24
2023/08/05 01:30:48;;;;;;;10.57;7.57;;;;;;;25.07;78.20;99442.66;5103847;28;20035;-24
2023/08/05 01:33:14;;;;;;;9.05;7.72;;;;;;;25.05;78.26;99444.94;5104400;28;20431;-24
2023/08/05 01:35:46;;;;;;;10.73;8.30;;;;;;;24.81;79.68;99440.88;5104038;28;20027;-23
2023/08/05 01:38:11;;;;;;;8.75;7.85;;;;;;;24.99;79.53;99452.50;5104194;28;20036;-24
2023/08/05 01:40:37;;;;;;;10.23;7.95;;;;;;;24.67;81.23;99443.03;5104134;28;20110;-24
2023/08/05 01:43:02;;;;;;;10.43;8.48;;;;;;;24.70;81.41;99445.09;5103691;28;20423;-23
2023/08/05 01:45:28;;;;;;;10.40;8.90;;;;;;;24.61;82.36;99441.63;5104192;28;20687;-23
2023/08/05 01:47:53;;;;;;;10.45;8.57;;;;;;;24.54;82.99;99430.44;5103864;28;20039;-23
2023/08/05 01:50:19;;;;;;;11.60;8.82;;;;;;;24.49;83.23;99444.22;5103951;28;20027;-23
2023/08/05 01:52:45;;;;;;;11.63;8.50;;;;;;;24.40;84.12;99431.44;5103828;28;20039;-24
2023/08/05 01:55:10;;;;;;;9.57;8.57;;;;;;;24.45;84.00;99433.97;5103759;28;20069;-23
2023/08/05 01:57:38;;;;;;;11.88;9.02;;;;;;;24.33;84.99;99430.34;5103774;28;20024;-23
2023/08/05 02:00:05;;;;;;;11.20;8.05;;;;;;;24.31;84.93;99438.03;5106263;28;20016;-23
2023/08/05 02:02:31;;;;;;;11.25;9.50;;;;;;;24.38;85.09;99441.06;5107392;28;20039;-23
2023/08/05 02:04:56;;;;;;;11.05;9.27;;;;;;;24.15;87.06;99430.41;5107502;28;20043;-23
2023/08/05 02:07:21;;;;;;;11.05;9.80;;;;;;;24.15;86.96;99432.31;5106950;28;20019;-23
2023/08/05 02:09:49;;;;;;;16.58;14.73;;;;;;;24.11;86.96;99423.19;5107481;28;20031;-23
2023/08/05 02:12:14;;;;;;;11.90;10.30;;;;;;;24.19;86.90;99433.25;5107296;28;20522;-23
2023/08/05 02:14:40;;;;;;;12.45;9.52;;;;;;;24.24;86.72;99436.59;5107151;28;20043;-24
2023/08/05 02:17:08;;;;;;;11.18;9.02;;;;;;;24.21;86.07;99433.72;5107465;28;20848;-23
2023/08/05 02:19:33;;;;;;;10.20;9.10;;;;;;;24.32;85.94;99435.00;5107370;28;20523;-32
2023/08/05 02:22:01;;;;;;;12.02;9.10;;;;;;;24.35;86.06;99445.22;5107359;28;20051;-24
2023/08/05 02:24:26;;;;;;;13.05;10.35;;;;;;;24.34;86.48;99449.09;5107009;28;20076;-25
2023/08/05 02:26:52;;;;;;;10.40;8.82;;;;;;;24.31;86.07;99443.47;5107071;28;20492;-23
2023/08/05 02:29:17;;;;;;;12.15;9.18;;;;;;;24.70;84.39;99455.22;5107009;28;20046;-23
2023/08/05 02:31:43;;;;;;;13.20;10.27;;;;;;;24.51;85.47;99450.97;5107114;28;20449;-24
2023/08/05 02:34:16;;;;;;;13.32;9.82;;;;;;;24.32;86.52;99451.34;5107465;28;20024;-23
2023/08/05 02:36:42;;;;;;;10.52;9.43;;;;;;;24.16;87.41;99450.25;5107100;28;20023;-24
2023/08/05 02:39:07;;;;;;;13.25;9.98;;;;;;;24.02;88.93;99445.78;5106820;28;20031;-24
2023/08/05 02:41:32;;;;;;;13.75;9.48;;;;;;;23.97;88.67;99435.09;5106750;28;20062;-23
2023/08/05 02:43:58;;;;;;;11.90;10.13;;;;;;;23.84;91.01;99436.88;5106810;28;20032;-23
2023/08/05 02:46:26;;;;;;;11.30;10.10;;;;;;;23.86;89.94;99439.25;5106976;28;20473;-24
2023/08/05 02:48:51;;;;;;;11.98;9.80;;;;;;;24.03;89.47;99444.69;5106356;28;20028;-23
2023/08/05 02:51:17;;;;;;;13.73;10.65;;;;;;;23.97;90.02;99448.72;5106378;28;20024;-24
2023/08/05 02:53:42;;;;;;;10.93;9.73;;;;;;;23.94;90.40;99448.53;5106683;28;20026;-24
2023/08/05 02:56:08;;;;;;;13.50;10.68;;;;;;;23.84;91.12;99446.94;5106794;28;20091;-23
2023/08/05 02:58:33;;;;;;;12.38;10.30;;;;;;;23.96;90.10;99455.25;5106887;28;20443;-24
2023/08/05 03:01:10;;;;;;;12.90;10.43;;;;;;;23.84;91.74;99457.84;5106425;28;20039;-24
2023/08/05 03:03:36;;;;;;;11.68;10.25;;;;;;;23.98;90.52;99455.75;5106198;28;20051;-25
2023/08/05 03:06:02;;;;;;;13.90;10.93;;;;;;;24.01;90.11;99457.03;5106327;27;20031;-24
2023/08/05 03:08:27;;;;;;;16.02;10.45;;;;;;;23.98;90.42;99455.75;5106265;28;20027;-25
2023/08/05 03:11:01;;;;;;;12.32;10.30;;;;;;;23.83;91.26;99456.25;5106095;28;20079;-23
2023/08/05 03:13:27;;;;;;;11.75;9.85;;;;;;;23.62;92.94;99465.06;5106490;28;20036;-24
2023/08/05 03:15:53;;;;;;;12.43;10.00;;;;;;;23.80;92.25;99456.88;5106076;28;20481;-25
2023/08/05 03:18:19;;;;;;;13.50;10.10;;;;;;;23.76;92.14;99456.72;5105990;28;20027;-24
2023/08/05 03:20:44;;;;;;;12.82;10.73;;;;;;;23.78;92.55;99453.69;5106133;28;20055;-24
2023/08/05 03:23:10;;;;;;;11.98;10.45;;;;;;;23.86;91.77;99464.59;5105943;28;20439;-24
2023/08/05 03:25:37;;;;;;;14.05;11.50;;;;;;;23.88;90.98;99458.00;5105657;28;20077;-23
2023/08/05 03:28:03;;;;;;;14.43;10.77;;;;;;;24.03;90.30;99455.59;5105944;27;20027;-23
2023/08/05 03:30:28;;;;;;;13.15;10.63;;;;;;;24.04;90.46;99457.16;5105811;27;20065;-24
2023/08/05 03:32:53;;;;;;;12.07;10.63;;;;;;;23.98;91.99;99455.75;5105699;28;20024;-24
2023/08/05 03:35:19;;;;;;;12.80;10.50;;;;;;;24.04;91.20;99462.63;5105623;28;20034;-25
2023/08/05 03:37:47;;;;;;;20.60;11.75;;;;;;;24.02;90.75;99464.06;5106022;28;20039;-24
2023/08/05 03:40:13;;;;;;;14.57;10.88;;;;;;;23.99;91.24;99462.00;5105751;28;20061;-24
2023/08/05 03:42:40;;;;;;;12.82;11.38;;;;;;;24.10;90.15;99455.06;5105863;28;20062;-23
2023/08/05 03:45:06;;;;;;;19.05;11.60;;;;;;;24.15;90.44;99454.09;5105864;28;20024;-24
2023/08/05 03:47:33;;;;;;;12.10;10.07;;;;;;;24.11;90.53;99453.16;5105835;28;20057;-24
2023/08/05 03:49:59;;;;;;;13.57;11.17;;;;;;;24.14;90.93;99456.03;5105425;28;20059;-24
2023/08/05 03:52:26;;;;;;;13.80;10.57;;;;;;;24.23;89.52;99453.28;5105062;28;20144;-23
2023/08/05 03:54:52;;;;;;;12.85;10.77;;;;;;;24.37;90.23;99459.31;5105751;28;20036;-24
2023/08/05 03:57:17;;;;;;;12.20;10.88;;;;;;;24.51;88.76;99458.34;5105415;28;20028;-24
2023/08/05 03:59:43;;;;;;;15.15;10.45;;;;;;;24.51;88.95;99459.16;5105472;28;20084;-23
2023/08/05 04:02:08;;;;;;;16.77;11.02;;;;;;;24.56;88.53;99466.34;5105354;28;20096;-24
2023/08/05 04:04:33;;;;;;;13.23;10.43;;;;;;;24.36;90.38;99457.72;5105051;28;20039;-23
2023/08/05 04:07:01;;;;;;;13.63;11.75;;;;;;;24.41;89.88;99449.38;5105279;28;20019;-23
2023/08/05 04:09:27;;;;;;;15.60;11.38;;;;;;;24.34;90.22;99448.28;5105538;28;20103;-24
2023/08/05 04:11:53;;;;;;;12.90;10.77;;;;;;;24.47;90.41;99456.22;5105159;28;20024;-24
2023/08/05 04:14:20;;;;;;;13.75;12.18;;;;;;;24.68;89.26;99452.81;5104988;28;20034;-24
2023/08/05 04:16:49;;;;;;;15.50;12.52;;;;;;;24.46;90.57;99451.94;5105154;28;20468;-27
2023/08/05 04:19:15;;;;;;;14.55;11.07;;;;;;;24.37;91.61;99442.97;5105093;28;20706;-25
2023/08/05 04:21:46;;;;;;;11.98;9.75;;;;;;;24.21;93.80;99439.19;5104471;28;20024;-24
2023/08/05 04:24:13;;;;;;;13.82;9.73;;;;;;;24.45;91.88;99450.31;5104990;28;20023;-24
2023/08/05 04:26:39;;;;;;;12.13;10.13;;;;;;;24.51;92.13;99445.53;5104921;28;20027;-24
2023/08/05 04:29:04;;;;;;;14.05;10.95;;;;;;;24.76;90.70;99448.44;5105054;28;20027;-24
2023/08/05 04:31:31;;;;;;;12.45;10.45;;;;;;;24.71;91.12;99457.63;5104914;28;20046;-24
2023/08/05 04:33:56;;;;;;;13.32;9.60;;;;;;;24.62;91.54;99452.22;5104634;28;20028;-24
2023/08/05 04:36:22;;;;;;;10.98;9.57;;;;;;;24.70;91.95;99456.00;5104268;28;20419;-23
2023/08/05 04:38:47;;;;;;;10.63;9.35;;;;;;;24.65;92.61;99459.72;5104653;28;20038;-23
2023/08/05 04:41:13;;;;;;;12.30;9.95;;;;;;;24.83;91.06;99463.16;5104492;27;20023;-24
2023/08/05 04:43:38;;;;;;;12.20;10.13;;;;;;;25.06;89.65;99463.69;5104866;28;20030;-24
2023/08/05 04:46:04;;;;;;;13.10;9.77;;;;;;;25.03;89.54;99474.47;5104942;28;20024;-24
2023/08/05 04:48:29;;;;;;;11.60;9.57;;;;;;;25.28;87.96;99469.22;5104505;28;20437;-24
2023/08/05 04:50:58;;;;;;;11.90;9.10;;;;;;;25.15;88.61;99471.00;5104758;28;20176;-24
2023/08/05 04:53:25;;;;;;;12.20;8.77;;;;;;;25.14;88.42;99469.41;5104857;28;20184;-23
2023/08/05 04:55:51;;;;;;;;;;;;;;;25.14;88.76;99470.22;5105206;28;20030;-25
2023/08/05 04:58:16;;;;;;;12.13;8.83;;;;;;;24.97;89.14;99470.34;5104690;28;19911;-28
2023/08/05 05:00:41;;;;;;;12.10;9.23;;;;;;;25.35;86.88;99475.72;5104358;28;20290;-24
2023/08/05 05:03:08;;;;;;;9.88;8.85;;;;;;;25.34;87.00;99473.34;5104215;28;20047;-23
2023/08/05 05:05:35;;;;;;;12.70;7.93;;;;;;;25.10;86.71;99457.56;5104520;28;20034;-25
2023/08/05 05:08:00;;;;;;;12.97;8.83;;;;;;;25.28;87.52;99469.22;5104599;28;20142;-25
2023/08/05 05:10:26;;;;;;;11.18;8.95;;;;;;;25.12;86.74;99467.03;5103821;28;20115;-25
2023/08/05 05:12:52;;;;;;;11.95;8.90;;;;;;;25.36;86.10;99460.16;5104053;28;20124;-25
2023/08/05 05:15:21;;;;;;;12.10;8.35;;;;;;;25.44;86.23;99465.53;5104378;28;20038;-25
2023/08/05 05:17:49;;;;;;;8.85;7.68;;;;;;;25.27;86.11;99468.38;5104547;28;20028;-26
2023/08/05 05:20:14;;;;;;;;;;;;;;;25.39;85.44;99464.94;5104846;28;20746;-25
2023/08/05 05:22:39;;;;;;;9.13;7.50;;;;;;;25.05;86.95;99462.09;5104000;28;19912;-24
2023/08/05 05:25:07;;;;;;;11.02;7.80;;;;;;;25.13;86.88;99468.63;5103979;28;20274;-25
2023/08/05 05:27:34;;;;;;;10.27;7.47;;;;;;;25.20;86.10;99451.72;5104164;28;20161;-25
2023/08/05 05:30:00;;;;;;;10.83;8.00;;;;;;;25.16;86.05;99467.94;5104073;28;20026;-26
2023/08/05 05:32:25;;;;;;;11.93;7.63;;;;;;;25.22;86.70;99471.31;5104012;28;20032;-25
2023/08/05 05:34:51;;;;;;;10.25;7.82;;;;;;;25.25;86.10;99471.47;5107809;28;20464;-25
2023/08/05 05:37:18;;;;;;;13.95;8.10;;;;;;;25.57;85.43;99465.59;5108207;28;20028;-24
2023/08/05 05:39:44;;;;;;;10.65;7.95;;;;;;;25.64;83.77;99466.66;5108213;28;20035;-25
2023/08/05 05:42:10;;;;;;;11.68;8.25;;;;;;;25.71;83.84;99465.34;5106410;28;20031;-24
2023/08/05 05:44:35;;;;;;;11.05;8.57;;;;;;;25.73;83.96;99471.25;5107628;28;20030;-25
2023/08/05 05:47:01;;;;;;;9.90;8.55;;;;;;;25.79;83.44;99469.91;5107875;28;20030;-25
2023/08/05 05:49:29;;;;;;;15.13;8.35;;;;;;;25.67;84.44;99466.00;5107856;27;20511;-24
2023/08/05 05:51:54;;;;;;;12.70;8.13;;;;;;;26.24;81.58;99455.50;5107998;27;20077;-26
2023/08/05 05:54:20;;;;;;;9.30;7.35;;;;;;;26.35;81.37;99462.13;5108021;28;20035;-24
2023/08/05 05:56:45;;;;;;;10.93;7.63;;;;;;;26.51;80.39;99461.47;5107802;28;20019;-24
2023/08/05 05:59:11;;;;;;;8.95;6.60;;;;;;;26.20;78.60;99449.13;5107590;28;20400;-25
2023/08/05 06:01:36;;;;;;;10.25;6.75;;;;;;;26.23;78.55;99440.22;5107627;27;20048;-25
2023/08/05 06:04:04;;;;;;;8.77;6.80;;;;;;;26.41;77.63;99440.84;5107681;28;20054;-25
2023/08/05 06:06:29;;;;;;;;;;;;;;;26.67;76.16;99450.69;5108140;28;20512;-24
2023/08/05 06:08:54;;;;;;;10.35;6.55;;;;;;;26.70;75.44;99445.31;5107165;28;19989;-25
2023/08/05 06:11:20;;;;;;;9.45;6.57;;;;;;;26.65;75.21;99446.34;5107582;28;20118;-25
2023/08/05 06:13:45;;;;;;;9.02;6.80;;;;;;;26.62;75.60;99455.25;5106867;28;20118;-24
2023/08/05 06:16:11;;;;;;;8.60;7.05;;;;;;;27.09;73.25;99445.72;5107705;28;20454;-24
2023/08/05 06:18:36;;;;;;;8.43;6.00;;;;;;;27.42;71.72;99445.59;5107093;28;20022;-24
2023/08/05 06:21:01;;;;;;;10.15;6.70;;;;;;;27.02;72.00;99454.53;5107044;28;20039;-24
2023/08/05 06:23:27;;;;;;;9.63;6.97;;;;;;;27.00;72.17;99453.28;5100737;28;20107;-23
2023/08/05 06:25:55;;;;;;;9.60;7.75;;;;;;;27.03;71.68;99449.84;5089627;28;20444;-23
2023/08/05 06:28:20;;;;;;;9.95;7.60;;;;;;;27.05;71.56;99451.13;5086801;28;20020;-24
2023/08/05 06:30:46;;;;;;;11.77;7.38;;;;;;;27.11;70.71;99442.66;5086696;28;20112;-23
2023/08/05 06:33:12;;;;;;;19.83;15.80;;;;;;;27.12;70.94;99428.63;5086206;28;20505;-24
2023/08/05 06:35:39;;;;;;;14.63;11.68;;;;;;;27.57;69.72;99435.81;5086505;28;20032;-24
2023/08/05 06:38:04;;;;;;;10.15;8.02;;;;;;;27.73;68.00;99424.94;5086636;28;20032;-24
2023/08/05 06:40:29;;;;;;;12.13;7.22;;;;;;;27.72;66.90;99433.47;5086304;28;20735;-24
2023/08/05 06:42:56;;;;;;;9.73;7.55;;;;;;;27.99;65.10;99427.22;5086383;28;20020;-27
2023/08/05 06:45:21;;;;;;;17.90;14.35;;;;;;;27.72;65.67;99422.53;5085714;28;20054;-24
2023/08/05 06:47:47;;;;;;;9.88;5.88;;;;;;;27.91;65.52;99419.97;5105037;28;20080;-25
2023/08/05 06:50:13;;;;;;;8.75;5.28;;;;;;;28.02;63.77;99421.03;5105354;28;20027;-23
2023/08/05 06:52:38;;;;;;;9.10;6.07;;;;;;;28.02;62.77;99417.50;5105259;28;20026;-26
2023/08/05 06:55:04;;;;;;;9.13;6.15;;;;;;;27.90;62.77;99412.09;5106069;28;20031;-24
2023/08/05 06:57:30;;;;;;;8.02;5.50;;;;;;;28.45;60.95;99415.81;5105612;28;20393;-25
2023/08/05 06:59:56;;;;;;;8.13;5.93;;;;;;;28.33;62.08;99413.97;5106707;28;20484;-23
2023/08/05 07:02:22;;;;;;;8.50;6.05;;;;;;;28.29;61.24;99401.31;5105622;28;20058;-27
2023/08/05 07:04:47;;;;;;;5.88;5.13;;;;;;;28.22;61.86;99407.44;5106010;27;20019;-23
2023/08/05 07:07:13;;;;;;;10.13;6.05;;;;;;;28.47;60.81;99407.25;5106597;28;20080;-23
2023/08/05 07:09:39;;;;;;;7.03;5.72;;;;;;;28.85;59.70;99407.38;5106230;28;20024;-26
2023/08/05 07:12:04;;;;;;;9.77;5.82;;;;;;;29.11;58.55;99408.75;5106532;28;20023;-24
2023/08/05 07:14:33;;;;;;;10.40;5.32;;;;;;;29.26;57.97;99398.88;5106259;28;20055;-24
2023/08/05 07:17:00;;;;;;;10.18;5.40;;;;;;;29.39;56.00;99399.53;5106440;28;20812;-23
2023/08/05 07:19:28;;;;;;;9.20;5.63;;;;;;;29.23;56.77;99394.09;5106010;28;20028;-25
2023/08/05 07:21:54;;;;;;;7.35;5.70;;;;;;;28.99;57.84;99400.59;5105779;28;20019;-24
2023/08/05 07:24:19;;;;;;;7.93;5.35;;;;;;;29.35;57.33;99395.91;5104758;28;20097;-24
2023/08/05 07:26:45;;;;;;;8.07;5.72;;;;;;;29.39;56.61;99394.03;5105613;28;20496;-24
2023/08/05 07:29:10;;;;;;;11.85;5.32;;;;;;;29.56;56.93;99399.06;5105830;28;20686;-23
2023/08/05 07:31:38;;;;;;;8.38;5.28;;;;;;;29.51;55.38;99398.59;5104965;28;20028;-24
2023/08/05 07:34:08;;;;;;;8.38;5.78;;;;;;;29.93;55.26;99393.09;5104781;28;20055;-24
2023/08/05 07:36:33;;;;;;;10.40;5.97;;;;;;;30.03;54.71;99387.00;5104269;28;20030;-26
2023/08/05 07:39:02;;;;;;;7.13;5.63;;;;;;;29.98;53.01;99401.06;5104499;28;20027;-24
2023/08/05 07:41:27;;;;;;;8.40;5.47;;;;;;;29.50;55.19;99397.75;5105401;28;20023;-23
2023/08/05 07:43:57;;;;;;;6.85;5.30;;;;;;;29.87;54.14;99394.56;5105373;28;20028;-24
2023/08/05 07:46:25;;;;;;;8.45;6.18;;;;;;;29.87;55.28;99386.31;5105474;28;20035;-23
2023/08/05 07:48:52;;;;;;;10.40;5.75;;;;;;;30.28;53.05;99386.63;5104240;28;20160;-25
2023/08/05 07:51:18;;;;;;;8.63;6.15;;;;;;;30.04;52.22;99380.34;5105484;28;20027;-23
2023/08/05 07:53:43;;;;;;;6.30;5.65;;;;;;;30.43;51.55;99388.47;5104821;28;20039;-23
2023/08/05 07:56:11;;;;;;;9.93;5.90;;;;;;;30.25;51.25;99390.09;5104815;28;20059;-23
2023/08/05 07:58:40;;;;;;;8.75;6.75;;;;;;;30.72;51.29;99394.41;5104968;28;20053;-23
2023/08/05 08:01:07;;;;;;;8.38;6.10;;;;;;;30.71;49.08;99395.56;5105212;28;20432;-23
2023/08/05 08:03:32;;;;;;;9.80;6.10;;;;;;;30.37;50.91;99378.94;5105157;28;20042;-23
2023/08/05 08:05:58;;;;;;;7.78;5.70;;;;;;;30.49;50.24;99386.19;5105270;28;21045;-23
2023/08/05 08:08:24;;;;;;;9.25;6.05;;;;;;;30.76;49.65;99378.72;5105328;28;20028;-24
2023/08/05 08:10:50;;;;;;;10.18;6.35;;;;;;;30.88;49.03;99380.50;5105362;28;20068;-27
2023/08/05 08:13:15;;;;;;;12.70;6.38;;;;;;;31.28;47.93;99384.53;5105012;28;20027;-24
2023/08/05 08:15:41;;;;;;;7.47;6.25;;;;;;;31.39;47.54;99381.91;5104915;28;20140;-24
2023/08/05 08:18:09;;;;;;;9.13;6.28;;;;;;;31.69;46.99;99373.63;5105017;28;20068;-23
2023/08/05 08:20:35;;;;;;;23.77;7.18;;;;;;;31.60;45.93;99368.38;5104728;28;20019;-23
2023/08/05 08:23:02;;;;;;;7.43;6.20;;;;;;;31.88;46.45;99358.81;5104768;28;20042;-24
2023/08/05 08:25:28;;;;;;;7.82;6.30;;;;;;;31.89;45.26;99360.41;5104680;27;20020;-23
2023/08/05 08:27:53;;;;;;;9.02;5.05;;;;;;;31.94;45.15;99360.06;5105018;28;20036;-23
2023/08/05 08:30:18;;;;;;;8.20;5.90;;;;;;;31.58;46.15;99362.47;5104499;28;20131;-24
2023/08/05 08:32:46;;;;;;;7.95;5.75;;;;;;;32.03;46.12;99349.53;5104654;28;20034;-23
2023/08/05 08:35:11;;;;;;;7.65;5.43;;;;;;;31.76;45.64;99345.31;5104741;28;20019;-23
2023/08/05 08:37:37;;;;;;;8.20;5.65;;;;;;;31.39;46.27;99346.09;5104649;28;20031;-26
2023/08/05 08:40:03;;;;;;;7.38;5.32;;;;;;;31.87;45.03;99343.44;5104911;28;20057;-23
2023/08/05 08:42:28;;;;;;;7.85;5.13;;;;;;;32.02;44.89;99341.66;5104524;28;20050;-23
2023/08/05 08:44:55;;;;;;;6.82;5.88;;;;;;;32.16;43.54;99327.16;5104901;28;20419;-24
2023/08/05 08:47:22;;;;;;;8.43;5.15;;;;;;;31.84;44.50;99314.69;5104702;28;20027;-25
2023/08/05 08:49:52;;;;;;;7.15;5.60;;;;;;;31.99;43.32;99332.16;5104771;28;20020;-23
2023/08/05 08:52:18;;;;;;;7.03;5.00;;;;;;;31.85;43.09;99332.00;5104578;28;20496;-23
2023/08/05 08:54:44;;;;;;;8.77;5.40;;;;;;;32.32;43.58;99322.16;5104379;27;20062;-24
2023/08/05 08:57:13;;;;;;;8.23;5.03;;;;;;;32.66;42.23;99324.75;5104718;28;21043;-23
2023/08/05 08:59:39;;;;;;;8.05;5.18;;;;;;;32.59;42.91;99328.28;5104751;28;20024;-24
2023/08/05 09:02:10;;;;;;;6.57;4.85;;;;;;;32.56;41.20;99325.50;5103960;28;20044;-23
2023/08/05 09:04:36;;;;;;;6.47;4.55;;;;;;;32.67;40.53;99314.50;5104543;28;20031;-24
2023/08/05 09:07:05;;;;;;;10.32;4.90;;;;;;;32.88;42.17;99305.53;5104180;28;20024;-23
2023/08/05 09:09:33;;;;;;;9.50;4.63;;;;;;;33.12;41.04;99312.34;5107803;28;20031;-23
2023/08/05 09:11:58;;;;;;;6.43;4.50;;;;;;;33.06;40.24;99316.63;5108437;28;20047;-24
2023/08/05 09:14:24;;;;;;;9.35;5.32;;;;;;;33.47;39.64;99299.78;5108334;28;20456;-23
2023/08/05 09:16:59;;;;;;;6.53;4.35;;;;;;;33.35;39.24;99310.06;5108786;28;20107;-23
2023/08/05 09:19:26;;;;;;;6.68;4.57;;;;;;;33.02;38.14;99291.78;5108449;28;20195;-23
2023/08/05 09:21:53;;;;;;;9.02;4.72;;;;;;;33.20;38.06;99297.38;5108892;28;20084;-23
2023/08/05 09:24:23;;;;;;;7.22;4.75;;;;;;;33.51;39.07;99287.59;5108542;28;20027;-23
2023/08/05 09:26:57;;;;;;;6.47;4.45;;;;;;;33.64;38.82;99263.13;5106570;28;20073;-24
2023/08/05 09:29:23;;;;;;;6.90;4.70;;;;;;;33.55;37.44;99274.56;5101199;28;20107;-23
2023/08/05 09:31:54;;;;;;;5.55;4.57;;;;;;;33.53;38.65;99259.53;5096451;28;20035;-23
2023/08/05 09:34:33;;;;;;;7.57;4.75;;;;;;;33.90;39.74;99250.88;5099212;28;20645;-24
2023/08/05 09:37:02;;;;;;;6.20;4.55;;;;;;;33.62;37.96;99252.44;5094513;27;20032;-23
2023/08/05 09:39:47;;;;;;;6.85;4.32;;;;;;;33.89;38.30;99246.50;5099815;28;20024;-23
2023/08/05 09:42:23;;;;;;;5.75;4.13;;;;;;;34.18;36.61;99255.59;5098246;28;20028;-24
2023/08/05 09:44:52;;;;;;;6.80;4.50;;;;;;;34.39;34.80;99260.28;5107675;28;20124;-23
2023/08/05 09:47:23;;;;;;;11.85;7.70;;;;;;;34.35;35.09;99253.97;5108360;28;20034;-24
2023/08/05 09:49:55;;;;;;;6.68;5.20;;;;;;;34.46;34.50;99267.78;5108326;28;20027;-24
2023/08/05 09:52:23;;;;;;;6.90;4.47;;;;;;;34.25;35.86;99254.78;5108507;28;20049;-24
2023/08/05 09:55:07;;;;;;;6.15;4.30;;;;;;;34.32;36.02;99249.22;5107766;28;20524;-24
2023/08/05 09:57:33;;;;;;;6.18;4.60;;;;;;;34.88;34.56;99246.69;5107534;27;20032;-25
2023/08/05 10:00:00;;;;;;;14.75;4.72;;;;;;;35.31;34.67;99248.41;5107691;28;20092;-25
2023/08/05 10:02:26;;;;;;;6.65;4.50;;;;;;;35.47;32.37;99247.91;5107445;28;20074;-25
2023/08/05 10:04:56;;;;;;;6.82;4.80;;;;;;;35.42;33.56;99232.50;5107886;28;20500;-25
2023/08/05 10:07:27;;;;;;;5.72;3.90;;;;;;;35.27;33.02;99239.31;5107845;27;20404;-25
2023/08/05 10:09:53;;;;;;;6.53;4.20;;;;;;;35.05;33.23;99222.81;5107661;28;20111;-24
2023/08/05 10:12:24;;;;;;;5.68;3.75;;;;;;;35.11;32.91;99223.97;5107570;28;20528;-24
2023/08/05 10:14:51;;;;;;;6.07;4.40;;;;;;;35.48;32.89;99222.53;5107483;27;20023;-24
2023/08/05 10:17:18;;;;;;;6.28;3.88;;;;;;;35.74;32.87;99217.63;5108257;28;20020;-25
2023/08/05 10:19:52;;;;;;;6.03;4.10;;;;;;;35.83;32.72;99220.69;5106206;27;20046;-25
2023/08/05 10:22:23;;;;;;;5.75;4.22;;;;;;;35.77;32.43;99219.56;5107100;28;20125;-25
2023/08/05 10:24:52;;;;;;;9.90;4.00;;;;;;;35.74;32.14;99214.84;5100874;28;20035;-24
2023/08/05 10:27:33;;;;;;;5.30;3.78;;;;;;;36.06;29.88;99205.38;5092470;28;20042;-26
2023/08/05 10:30:06;;;;;;;7.32;3.75;;;;;;;36.31;29.53;99196.78;5086781;28;20021;-26
2023/08/05 10:32:35;;;;;;;6.30;3.40;;;;;;;35.93;28.19;99194.81;5086811;28;20409;-24
2023/08/05 10:35:26;;;;;;;5.35;3.67;;;;;;;35.98;29.64;99185.25;5086968;28;20020;-24
2023/08/05 10:38:06;;;;;;;4.85;3.65;;;;;;;36.71;29.74;99180.47;5086818;28;20078;-25
2023/08/05 10:40:51;;;;;;;6.43;3.40;;;;;;;36.34;29.34;99176.56;5086494;28;20402;-25
2023/08/05 10:43:30;;;;;;;5.95;3.40;;;;;;;36.22;28.69;99177.09;5085100;28;20040;-24
2023/08/05 10:46:00;;;;;;;8.15;3.40;;;;;;;36.49;28.11;99174.38;5086253;28;20024;-25
2023/08/05 10:48:45;;;;;;;6.03;3.10;;;;;;;36.67;27.86;99163.84;5086953;28;20060;-24
2023/08/05 10:51:16;;;;;;;6.13;3.13;;;;;;;36.83;26.97;99156.88;5086241;28;20028;-25
2023/08/05 10:54:02;;;;;;;6.25;3.20;;;;;;;36.87;27.40;99157.63;5086087;28;20024;-24
2023/08/05 10:56:30;;;;;;;5.55;3.33;;;;;;;37.21;28.32;99146.38;5086340;28;20030;-24
2023/08/05 10:58:55;;;;;;;5.75;3.05;;;;;;;37.31;27.51;99147.41;5086073;28;20032;-27
2023/08/05 11:01:20;;;;;;;5.85;3.53;;;;;;;36.93;27.47;99148.38;5086166;28;20436;-25
2023/08/05 11:03:47;;;;;;;5.97;3.38;;;;;;;37.00;27.33;99158.59;5086194;28;20675;-25
2023/08/05 11:06:13;;;;;;;7.78;3.28;;;;;;;37.51;27.07;99151.00;5086181;28;20028;-24
2023/08/05 11:08:43;;;;;;;6.10;3.20;;;;;;;37.24;26.79;99144.75;5085810;28;20398;-25
2023/08/05 11:11:10;;;;;;;7.22;3.70;;;;;;;37.17;26.92;99140.09;5085943;28;20128;-26
2023/08/05 11:13:40;;;;;;;5.10;3.30;;;;;;;37.40;26.91;99140.09;5086038;28;20436;-25
2023/08/05 11:16:10;;;;;;;9.20;3.85;;;;;;;37.53;27.36;99133.91;5086073;28;20472;-24
2023/08/05 11:18:37;;;;;;;8.65;3.97;;;;;;;37.50;26.56;99132.00;5086089;28;20028;-25
2023/08/05 11:21:05;;;;;;;7.78;4.05;;;;;;;37.11;26.39;99122.34;5085851;28;20031;-24
2023/08/05 11:23:31;;;;;;;7.22;4.10;;;;;;;36.94;27.46;99122.19;5085528;28;20143;-24
2023/08/05 11:26:01;;;;;;;5.50;3.80;;;;;;;37.40;27.10;99117.06;5085933;28;20515;-25
2023/08/05 11:28:27;;;;;;;7.30;4.00;;;;;;;37.43;27.52;99113.41;5085881;28;20035;-25